Main page
METAR-TAF:

METAR-TAF

Airports :

Jammu Airport

Jammu, India

latitude: 32-41-21N, longitude: 74-50-15E, elevation: 314 m

METAR: missing

Time: 09:09 (03:39 UTC)

Forecast

The report was made 18 hours and 9 minutes ago, at 09:30 UTC
Forecast valid from 02 at 18 UTC to 03 at 12 UTC
Wind 2 kt from variable directions
Visibility: 5000 m
Few clouds at a height of 20000 ft
haze
Temporary
from 03 at 01 UTC to 03 at 04 UTC
Wind 5 kt from the Southeast
Visibility: 3000 m
Scattered clouds at a height of 20000 ft
mist

TAF: VIJU 020930Z 0218/0312 VRB02KT 5000 HZ FEW200 TEMPO 0301/0304 14005KT 3000 BR SCT200

Weather observations and forecasts of more than 4000 airports (METAR and TAF reports).

The available stations are represented by yellow and red dots on the map.

Hover mouse over dot to see the name of the station.

Then click to see weather observations and forecasts.

To change the map : click on the green buttons with a black cross to zoom in, on the green button with a dash to zoom out, or on the green arrows for adjacent maps.


METAR-TAF: